Fethiye, Turkey
Current Conditions -  °F | °C
As of 1:20 PM on Saturday 22 Nov 2014 (Local Time) from LTBS Reporting Station
Few Clouds Few Clouds  
Wind Chill: 61°   Ceiling: Unl
Heat Index: 61°   Visibility: 6mi
Dew Point: 36°   Wind: 10mph
Humidity: 39%   Direction: 330°NNW
Pressure: 30.03"   Gusts: NA
Location:  36.62°N, 29.11°E
Report Text: LTBS 221020Z 33009KT 300V360 9999 FEW030 16/02 Q1017 NOSIG
Loading
Personal Weather Stations






























Interactive Weather Map New forecast layout! Learn more

10-Day Weather Forecast

Advertisements
Track Severe Weather on mobile